Time;durP1;ratioP1;P1;durP2;ratioP2;P2;SDS_P1;SDS_P2;PMS_P1;PMS_P2;Temp;Humidity;BMP_temperature;BMP_pressure;BME280_temperature;BME280_humidity;BME280_pressure;Samples;Min_cycle;Max_cycle;Signal;HPM_P1;HPM_P2
2021/04/27 00:00:27;;;;;;;5.13;3.60;;;9.30;45.70;;;;;;5120444;28;20422;-87
2021/04/27 00:03:04;;;;;;;5.47;3.20;;;9.20;45.90;;;;;;5140199;28;20445;-88
2021/04/27 00:05:41;;;;;;;3.93;3.53;;;9.30;46.40;;;;;;5121503;28;20805;-88
2021/04/27 00:08:31;;;;;;;6.40;3.33;;;9.30;45.80;;;;;;5116776;28;20531;-88
2021/04/27 00:11:27;;;;;;;7.00;3.50;;;9.20;45.80;;;;;;5115785;28;20476;-87
2021/04/27 00:14:03;;;;;;;4.00;3.50;;;9.10;46.80;;;;;;5116615;28;20446;-87
2021/04/27 00:16:37;;;;;;;4.53;3.60;;;8.90;47.40;;;;;;5116027;28;20450;-88
2021/04/27 00:19:10;;;;;;;3.70;3.23;;;9.00;48.10;;;;;;5132298;28;20457;-87
2021/04/27 00:21:47;;;;;;;4.77;3.77;;;9.00;47.30;;;;;;5139571;28;20437;-88
2021/04/27 00:24:22;;;;;;;4.20;3.33;;;9.00;45.60;;;;;;5117368;28;20483;-87
2021/04/27 00:27:02;;;;;;;6.33;3.97;;;9.00;45.50;;;;;;5117691;28;20453;-87
2021/04/27 00:29:31;;;;;;;6.80;2.67;;;9.00;45.50;;;;;;5136705;28;20493;-86
2021/04/27 00:32:01;;;;;;;3.83;3.13;;;8.90;44.10;;;;;;5139876;28;20476;-87
2021/04/27 00:34:36;;;;;;;4.80;3.00;;;8.80;44.30;;;;;;5131109;28;20446;-87
2021/04/27 00:37:14;;;;;;;3.20;2.90;;;8.80;44.30;;;;;;5137590;28;20465;-87
2021/04/27 00:39:46;;;;;;;2.90;2.67;;;8.90;44.20;;;;;;5119684;28;20457;-87
2021/04/27 00:42:17;;;;;;;5.00;3.80;;;8.90;43.90;;;;;;5118255;28;20456;-87
2021/04/27 00:45:03;;;;;;;5.40;3.53;;;9.00;45.20;;;;;;5117564;28;20464;-87
2021/04/27 00:47:42;;;;;;;3.53;3.23;;;8.90;45.70;;;;;;5122821;28;20825;-87
2021/04/27 00:50:19;;;;;;;3.87;3.33;;;9.00;45.70;;;;;;5117673;28;20449;-87
2021/04/27 00:55:37;;;;;;;4.70;3.20;;;8.90;45.50;;;;;;5134378;28;20442;-87
2021/04/27 00:58:06;;;;;;;6.97;3.63;;;8.90;45.40;;;;;;5128805;28;20458;-87
2021/04/27 01:00:51;;;;;;;5.07;3.17;;;8.90;45.80;;;;;;5135873;28;20438;-87
2021/04/27 01:03:28;;;;;;;6.20;4.07;;;8.70;45.00;;;;;;5125442;28;20467;-87
2021/04/27 01:06:09;;;;;;;6.40;3.30;;;8.80;45.30;;;;;;5116647;28;20448;-87
2021/04/27 01:08:49;;;;;;;4.27;3.03;;;8.70;44.80;;;;;;5115171;28;20470;-86
2021/04/27 01:11:28;;;;;;;4.07;2.80;;;8.70;45.00;;;;;;5114941;28;20563;-87
2021/04/27 01:14:08;;;;;;;5.70;3.43;;;8.70;45.10;;;;;;5115670;28;20491;-86
2021/04/27 01:16:49;;;;;;;6.10;4.00;;;8.70;45.30;;;;;;5116065;28;20453;-86
2021/04/27 01:19:19;;;;;;;4.40;3.17;;;8.60;45.60;;;;;;5115086;28;20449;-87
2021/04/27 01:22:00;;;;;;;3.83;3.53;;;8.60;46.00;;;;;;5115353;28;20476;-87
2021/04/27 01:27:42;;;;;;;;;;;;;;;;;;;;;
2021/04/27 01:30:20;;;;;;;3.63;3.30;;;8.50;46.40;;;;;;5115045;28;20527;-88
2021/04/27 01:32:56;;;;;;;4.60;3.20;;;8.50;46.20;;;;;;5115070;28;20441;-87
2021/04/27 01:35:27;;;;;;;3.30;2.90;;;8.50;45.70;;;;;;5114750;28;20453;-88
2021/04/27 01:38:00;;;;;;;7.53;3.97;;;8.50;45.90;;;;;;5114548;28;20537;-87
2021/04/27 01:40:36;;;;;;;3.83;3.00;;;8.50;45.70;;;;;;5113364;28;20446;-88
2021/04/27 01:43:13;;;;;;;4.03;3.23;;;8.40;46.20;;;;;;5117270;28;20949;-87
2021/04/27 01:45:43;;;;;;;3.60;3.30;;;8.40;46.50;;;;;;5114733;28;20438;-87
2021/04/27 01:48:22;;;;;;;3.30;3.00;;;8.50;46.20;;;;;;5113634;28;20480;-87
2021/04/27 01:50:52;;;;;;;3.77;3.30;;;8.40;46.50;;;;;;5114500;28;20977;-87
2021/04/27 01:53:25;;;;;;;3.47;2.73;;;8.40;46.30;;;;;;5114561;28;20814;-87
2021/04/27 01:55:55;;;;;;;4.27;3.43;;;8.40;46.30;;;;;;5114120;28;20454;-87
2021/04/27 01:58:36;;;;;;;5.20;3.13;;;8.30;46.50;;;;;;5114262;28;21033;-88
2021/04/27 02:01:10;;;;;;;4.67;3.23;;;8.20;46.80;;;;;;5131576;28;20421;-87
2021/04/27 02:03:50;;;;;;;4.40;4.00;;;8.40;47.70;;;;;;5131453;28;20450;-87
2021/04/27 02:06:27;;;;;;;4.93;3.00;;;8.40;49.50;;;;;;5114764;28;20441;-87
2021/04/27 02:09:06;;;;;;;5.20;3.70;;;8.40;50.90;;;;;;5113882;28;20469;-87
2021/04/27 02:14:30;;;;;;;4.20;3.20;;;8.10;51.70;;;;;;5130363;28;20432;-87
2021/04/27 02:17:09;;;;;;;5.73;3.90;;;8.00;51.50;;;;;;5137444;28;20486;-87
2021/04/27 02:19:49;;;;;;;6.13;4.00;;;7.90;51.30;;;;;;5115827;28;20453;-87
2021/04/27 02:22:24;;;;;;;3.67;3.33;;;7.90;51.50;;;;;;5137779;28;20445;-87
2021/04/27 02:24:55;;;;;;;4.70;4.20;;;7.90;51.60;;;;;;5127850;28;20447;-87
2021/04/27 02:27:26;;;;;;;7.10;3.93;;;7.80;51.90;;;;;;5113718;28;20504;-87
2021/04/27 02:30:07;;;;;;;4.30;3.70;;;7.70;52.10;;;;;;5113516;28;20497;-87
2021/04/27 02:32:51;;;;;;;4.27;3.20;;;7.70;52.10;;;;;;5113290;28;20826;-87
2021/04/27 02:35:38;;;;;;;4.57;3.50;;;7.70;52.20;;;;;;5113969;28;20505;-87
2021/04/27 02:38:25;;;;;;;6.97;4.20;;;7.70;52.50;;;;;;5113945;28;20510;-87
2021/04/27 02:41:10;;;;;;;5.40;3.50;;;7.70;52.20;;;;;;5137620;28;20501;-87
2021/04/27 02:43:53;;;;;;;4.63;3.53;;;7.60;52.50;;;;;;5124156;28;20448;-87
2021/04/27 02:46:25;;;;;;;5.20;3.47;;;7.50;52.70;;;;;;5137652;28;20418;-87
2021/04/27 02:49:00;;;;;;;3.60;3.30;;;7.50;52.70;;;;;;5116111;28;20542;-87
2021/04/27 02:51:38;;;;;;;6.73;4.20;;;7.40;52.60;;;;;;5115571;28;20568;-88
2021/04/27 02:54:31;;;;;;;4.37;3.20;;;7.50;52.40;;;;;;5115863;28;20457;-87
2021/04/27 02:57:11;;;;;;;4.80;4.30;;;7.40;52.30;;;;;;5116569;28;20449;-87
2021/04/27 02:59:42;;;;;;;4.40;3.80;;;7.40;52.10;;;;;;5117483;28;20442;-87
2021/04/27 03:04:57;;;;;;;3.93;3.50;;;7.40;52.00;;;;;;5092600;28;20464;-87
2021/04/27 03:07:28;;;;;;;7.40;4.50;;;7.40;52.00;;;;;;5099482;28;20453;-87
2021/04/27 03:09:58;;;;;;;5.40;4.33;;;7.30;52.10;;;;;;5114660;28;20431;-87
2021/04/27 03:12:34;;;;;;;3.97;3.67;;;7.30;52.30;;;;;;5116565;28;20462;-89
2021/04/27 03:17:59;;;;;;;3.90;3.60;;;7.30;53.00;;;;;;5131320;28;20453;-88
2021/04/27 03:20:30;;;;;;;3.70;3.40;;;7.20;53.30;;;;;;5140159;28;20521;-89
2021/04/27 03:23:03;;;;;;;4.33;3.90;;;7.20;53.40;;;;;;5123781;28;20597;-88
2021/04/27 03:25:44;;;;;;;6.20;3.33;;;7.20;53.50;;;;;;5119339;28;20502;-88
2021/04/27 03:28:29;;;;;;;5.63;4.07;;;7.20;53.60;;;;;;5118980;28;20478;-88
2021/04/27 03:33:59;;;;;;;3.90;3.50;;;7.20;54.00;;;;;;5115335;28;20525;-88
2021/04/27 03:36:37;;;;;;;4.93;3.40;;;7.20;53.90;;;;;;5129216;28;20452;-87
2021/04/27 03:39:16;;;;;;;3.93;3.60;;;7.20;53.90;;;;;;5140877;28;20472;-87
2021/04/27 03:41:52;;;;;;;3.83;3.40;;;7.30;54.10;;;;;;5126412;28;20510;-87
2021/04/27 03:44:26;;;;;;;5.40;3.77;;;7.30;54.00;;;;;;5139685;28;20425;-87
2021/04/27 03:47:00;;;;;;;5.77;3.60;;;7.20;53.90;;;;;;5126720;28;20993;-87
2021/04/27 03:49:34;;;;;;;5.77;3.67;;;7.20;54.00;;;;;;5118028;28;20563;-87
2021/04/27 03:52:14;;;;;;;4.93;4.33;;;7.30;54.10;;;;;;5117554;28;20511;-87
2021/04/27 03:54:49;;;;;;;5.87;3.50;;;7.30;54.00;;;;;;5117388;28;20452;-87
2021/04/27 03:57:27;;;;;;;4.43;3.87;;;7.40;54.00;;;;;;5118212;28;20865;-87
2021/04/27 04:00:19;;;;;;;6.27;3.33;;;7.30;54.00;;;;;;5118045;28;20448;-88
2021/04/27 04:02:46;;;;;;;6.30;4.50;;;7.30;54.20;;;;;;5139994;28;20488;-87
2021/04/27 04:05:20;;;;;;;6.93;4.57;;;7.20;54.30;;;;;;5127127;28;20448;-87
2021/04/27 04:07:52;;;;;;;5.37;4.50;;;7.20;54.50;;;;;;5121679;28;20472;-87
2021/04/27 04:10:26;;;;;;;6.40;3.57;;;7.20;54.80;;;;;;5116969;28;20449;-87
2021/04/27 04:12:59;;;;;;;6.43;4.40;;;7.30;54.80;;;;;;5126034;28;20498;-88
2021/04/27 04:15:38;;;;;;;4.67;3.73;;;7.20;55.10;;;;;;5131410;28;20430;-88
2021/04/27 04:18:14;;;;;;;5.77;3.83;;;7.20;55.00;;;;;;5101261;28;20512;-87
2021/04/27 04:20:50;;;;;;;6.80;3.97;;;7.10;54.80;;;;;;5097429;28;20446;-87
2021/04/27 04:23:25;;;;;;;4.53;3.53;;;7.00;55.00;;;;;;5096857;28;20446;-87
2021/04/27 04:25:55;;;;;;;6.43;3.33;;;7.00;55.10;;;;;;5097377;28;20446;-87
2021/04/27 04:28:32;;;;;;;4.20;3.80;;;7.00;55.20;;;;;;5097528;28;20531;-87
2021/04/27 04:31:01;;;;;;;4.10;3.60;;;7.00;55.20;;;;;;5108057;28;20532;-87
2021/04/27 04:33:29;;;;;;;5.60;4.10;;;6.90;55.20;;;;;;5116552;28;20444;-87
2021/04/27 04:36:03;;;;;;;6.37;3.90;;;6.90;55.40;;;;;;5117262;28;20437;-87
2021/04/27 04:38:38;;;;;;;5.10;4.13;;;7.00;55.50;;;;;;5117128;28;20524;-88
2021/04/27 04:41:08;;;;;;;5.57;4.60;;;7.00;55.30;;;;;;5117100;28;20445;-87
2021/04/27 04:43:43;;;;;;;6.40;4.13;;;7.00;55.20;;;;;;5116617;28;20491;-88
2021/04/27 04:46:18;;;;;;;6.63;3.73;;;7.10;55.30;;;;;;5115788;28;20460;-87
2021/04/27 04:48:48;;;;;;;5.03;3.90;;;7.10;55.40;;;;;;5115671;28;20878;-89
2021/04/27 04:51:20;;;;;;;5.57;3.67;;;7.20;55.30;;;;;;5132757;28;20495;-88
2021/04/27 04:54:17;;;;;;;5.37;4.70;;;7.30;55.20;;;;;;5131924;28;20438;-88
2021/04/27 04:56:48;;;;;;;3.90;3.60;;;7.30;55.10;;;;;;5128289;28;20462;-88
2021/04/27 04:59:19;;;;;;;5.20;4.23;;;7.50;55.10;;;;;;5124556;28;20534;-88
2021/04/27 05:01:56;;;;;;;4.90;4.23;;;7.60;55.00;;;;;;5134199;28;20454;-88
2021/04/27 05:04:27;;;;;;;3.97;3.60;;;7.60;54.90;;;;;;5129291;28;20901;-88
2021/04/27 05:07:07;;;;;;;3.93;3.43;;;7.70;54.30;;;;;;5117692;28;20442;-88
2021/04/27 05:09:44;;;;;;;5.80;4.33;;;7.80;53.90;;;;;;5116959;28;20442;-88
2021/04/27 05:12:21;;;;;;;5.73;3.83;;;7.90;53.40;;;;;;5115834;28;20526;-88
2021/04/27 05:15:03;;;;;;;4.87;4.47;;;8.00;53.10;;;;;;5116054;28;20937;-87
2021/04/27 05:17:36;;;;;;;14.80;5.70;;;8.10;52.90;;;;;;5115127;28;20551;-87
2021/04/27 05:20:18;;;;;;;6.70;3.90;;;8.20;52.80;;;;;;5115074;28;20457;-88
2021/04/27 05:23:02;;;;;;;4.53;4.00;;;8.10;52.70;;;;;;5112562;28;20969;-87
2021/04/27 05:30:02;;;;;;;;;;;;;;;;;;;;;
2021/04/27 05:32:41;;;;;;;14.97;4.67;;;8.30;52.90;;;;;;5090058;28;20846;-88
2021/04/27 05:35:12;;;;;;;4.27;3.80;;;8.50;52.80;;;;;;5114619;28;20450;-88
2021/04/27 05:38:22;;;;;;;5.27;4.33;;;8.60;52.50;;;;;;5113055;28;20809;-88
2021/04/27 05:41:12;;;;;;;5.93;4.70;;;8.70;52.20;;;;;;5057434;28;20429;-87
2021/04/27 05:59:48;;;;;;;7.10;5.50;;;11.30;45.70;;;;;;5135263;28;20438;-86
2021/04/27 06:03:28;;;;;;;5.63;4.60;;;11.70;44.80;;;;;;5138071;28;20480;-87
2021/04/27 06:11:49;;;;;;;4.80;4.30;;;12.90;41.40;;;;;;5066980;28;20484;-87
2021/04/27 06:14:20;;;;;;;10.93;5.80;;;12.70;41.70;;;;;;5070876;28;20436;-87
2021/04/27 06:16:53;;;;;;;5.77;5.20;;;12.60;42.30;;;;;;5073020;28;20435;-87
2021/04/27 06:19:28;;;;;;;10.53;5.37;;;12.70;42.20;;;;;;5078434;28;20452;-88
2021/04/27 06:22:07;;;;;;;4.57;4.17;;;13.10;41.80;;;;;;5088176;28;20439;-85
2021/04/27 06:24:55;;;;;;;6.80;4.90;;;13.60;41.10;;;;;;5090198;28;20823;-86
2021/04/27 06:27:24;;;;;;;6.30;5.00;;;14.30;40.70;;;;;;5087197;28;20495;-87
2021/04/27 06:29:53;;;;;;;8.33;6.17;;;14.70;39.70;;;;;;5090517;28;20481;-86
2021/04/27 06:35:51;;;;;;;10.03;6.20;;;15.40;38.40;;;;;;5069746;28;20462;-88
2021/04/27 06:38:18;;;;;;;8.30;5.30;;;15.80;37.90;;;;;;5075052;28;20490;-88
2021/04/27 06:40:45;;;;;;;9.60;5.53;;;15.90;37.90;;;;;;5075918;28;20452;-88
2021/04/27 06:43:12;;;;;;;5.73;4.10;;;16.20;37.40;;;;;;5075974;28;20474;-88
2021/04/27 06:45:39;;;;;;;9.23;5.73;;;16.50;37.10;;;;;;5075882;28;20959;-88
2021/04/27 06:48:06;;;;;;;11.57;5.20;;;17.00;36.80;;;;;;5074189;28;20470;-88
2021/04/27 06:50:33;;;;;;;8.23;6.00;;;17.20;36.10;;;;;;5074169;28;20438;-88
2021/04/27 06:53:00;;;;;;;7.23;5.43;;;17.50;35.70;;;;;;5092865;28;20465;-88
2021/04/27 06:55:26;;;;;;;12.80;6.13;;;17.60;35.30;;;;;;5093893;28;20444;-88
2021/04/27 06:57:53;;;;;;;10.00;4.93;;;17.80;35.20;;;;;;5077877;28;20983;-88
2021/04/27 07:00:20;;;;;;;9.10;5.80;;;18.20;35.10;;;;;;5078487;28;20443;-89
2021/04/27 07:02:47;;;;;;;6.53;5.20;;;18.80;34.50;;;;;;5099278;28;20506;-88
2021/04/27 07:05:13;;;;;;;6.77;5.30;;;19.20;33.90;;;;;;5091725;28;20443;-89
2021/04/27 07:07:39;;;;;;;7.97;5.60;;;19.60;33.10;;;;;;5097779;28;20485;-87
2021/04/27 07:10:06;;;;;;;8.20;4.90;;;20.10;32.40;;;;;;5087465;28;20439;-85
2021/04/27 07:12:32;;;;;;;6.70;5.60;;;20.40;31.80;;;;;;5077621;28;20479;-85
2021/04/27 07:14:59;;;;;;;6.20;5.60;;;20.90;31.40;;;;;;5077530;28;20960;-85
2021/04/27 07:17:26;;;;;;;8.50;5.43;;;21.10;30.70;;;;;;5077217;28;20522;-85
2021/04/27 07:19:52;;;;;;;10.47;6.30;;;21.40;30.10;;;;;;5077484;28;20453;-85
2021/04/27 07:22:18;;;;;;;6.67;5.50;;;21.50;30.00;;;;;;5076859;28;20827;-84
2021/04/27 07:24:45;;;;;;;7.73;6.53;;;21.50;29.70;;;;;;5075107;28;20427;-85
2021/04/27 07:27:11;;;;;;;6.23;5.73;;;21.90;29.70;;;;;;5076081;28;20467;-85
2021/04/27 07:29:37;;;;;;;6.67;6.03;;;21.40;29.10;;;;;;5076544;28;20961;-85
2021/04/27 07:32:04;;;;;;;7.63;6.17;;;20.10;30.40;;;;;;5075947;28;20919;-85
2021/04/27 07:34:31;;;;;;;6.00;5.40;;;20.50;31.00;;;;;;5076795;28;20453;-85
2021/04/27 07:36:57;;;;;;;6.83;6.00;;;21.20;30.00;;;;;;5076612;28;20503;-85
2021/04/27 07:39:23;;;;;;;7.30;6.43;;;21.40;29.70;;;;;;5075953;28;20975;-85
2021/04/27 07:41:50;;;;;;;7.00;6.47;;;21.50;29.70;;;;;;5077492;28;20446;-85
2021/04/27 07:44:16;;;;;;;7.23;6.63;;;20.60;29.60;;;;;;5076429;28;20947;-85
2021/04/27 07:46:42;;;;;;;10.83;7.63;;;20.90;30.40;;;;;;5075889;28;21035;-85
2021/04/27 07:49:09;;;;;;;6.93;6.03;;;20.40;30.20;;;;;;5076846;28;20484;-84
2021/04/27 07:51:36;;;;;;;7.37;6.53;;;20.80;30.10;;;;;;5076444;28;20480;-85
2021/04/27 07:54:03;;;;;;;7.07;6.20;;;21.40;30.00;;;;;;5077098;28;20862;-84
2021/04/27 07:56:30;;;;;;;6.10;5.60;;;22.10;29.40;;;;;;5074517;28;20942;-85
2021/04/27 07:58:57;;;;;;;7.17;6.43;;;22.90;28.80;;;;;;5076444;28;20588;-86
2021/04/27 08:01:23;;;;;;;8.10;6.40;;;23.60;28.50;;;;;;5085653;28;20439;-86
2021/04/27 08:03:49;;;;;;;6.70;6.17;;;24.00;27.50;;;;;;5098415;28;20449;-86
2021/04/27 08:06:16;;;;;;;6.87;6.33;;;23.90;27.80;;;;;;5084549;28;20451;-86
2021/04/27 08:08:43;;;;;;;7.00;6.10;;;22.90;27.80;;;;;;5074398;28;20830;-86
2021/04/27 08:11:09;;;;;;;7.13;6.53;;;23.50;28.40;;;;;;5075655;28;20491;-86
2021/04/27 08:13:35;;;;;;;7.30;6.60;;;22.70;28.20;;;;;;5076106;28;20470;-87
2021/04/27 08:16:02;;;;;;;7.33;6.57;;;22.40;28.50;;;;;;5075188;28;20451;-85
2021/04/27 08:18:28;;;;;;;7.53;6.67;;;23.00;28.60;;;;;;5075924;28;20464;-86
2021/04/27 08:20:54;;;;;;;7.67;6.90;;;24.10;28.10;;;;;;5076009;28;20453;-86
2021/04/27 08:23:21;;;;;;;6.93;6.00;;;24.90;27.70;;;;;;5075409;28;20454;-87
2021/04/27 08:25:48;;;;;;;7.50;6.90;;;25.70;27.00;;;;;;5075184;28;20449;-86
2021/04/27 08:28:14;;;;;;;7.80;6.70;;;26.00;26.40;;;;;;5075146;28;20478;-86
2021/04/27 08:30:40;;;;;;;7.83;7.03;;;25.90;26.30;;;;;;5076295;28;20451;-86
2021/04/27 08:33:06;;;;;;;8.80;7.60;;;26.40;26.30;;;;;;5075712;28;20447;-86
2021/04/27 08:35:33;;;;;;;7.93;7.23;;;26.80;25.90;;;;;;5075389;28;20805;-86
2021/04/27 08:37:59;;;;;;;8.57;7.73;;;27.40;25.40;;;;;;5076282;28;20486;-86
2021/04/27 08:40:25;;;;;;;8.07;7.30;;;26.20;25.60;;;;;;5089692;28;20501;-86
2021/04/27 08:42:52;;;;;;;8.00;7.37;;;25.70;26.50;;;;;;5092377;28;20451;-86
2021/04/27 08:45:19;;;;;;;7.03;6.07;;;26.20;26.50;;;;;;5080486;28;20449;-87
2021/04/27 08:47:46;;;;;;;7.70;7.10;;;26.40;26.30;;;;;;5088022;28;20461;-86
2021/04/27 08:50:15;;;;;;;7.00;6.50;;;27.10;25.80;;;;;;5095862;28;20458;-88
2021/04/27 08:52:41;;;;;;;6.50;5.73;;;27.60;25.60;;;;;;5077514;28;20477;-88
2021/04/27 08:55:09;;;;;;;7.30;6.57;;;27.90;25.40;;;;;;5091049;28;20681;-88
2021/04/27 08:57:36;;;;;;;7.50;6.80;;;29.20;24.90;;;;;;5095308;28;20455;-88
2021/04/27 09:00:06;;;;;;;8.63;7.80;;;29.70;24.10;;;;;;5080595;28;20473;-88
2021/04/27 09:02:33;;;;;;;8.20;7.40;;;30.40;23.80;;;;;;5077774;28;20449;-88
2021/04/27 09:04:59;;;;;;;8.20;7.40;;;30.40;23.40;;;;;;5085479;28;20456;-88
2021/04/27 09:07:27;;;;;;;8.20;7.40;;;30.80;23.00;;;;;;5093040;28;20474;-88
2021/04/27 09:09:56;;;;;;;8.70;7.30;;;30.80;22.90;;;;;;5078794;28;20455;-88
2021/04/27 09:12:25;;;;;;;7.37;6.73;;;30.80;22.70;;;;;;5092163;28;20551;-87
2021/04/27 09:14:52;;;;;;;8.27;7.23;;;30.20;23.00;;;;;;5097180;28;20556;-87
2021/04/27 09:17:23;;;;;;;7.07;6.37;;;30.10;23.10;;;;;;5085244;28;20998;-87
2021/04/27 09:19:52;;;;;;;8.37;7.67;;;28.50;24.30;;;;;;5094406;28;20425;-87
2021/04/27 09:22:20;;;;;;;8.50;7.70;;;28.80;24.20;;;;;;5098297;28;20466;-87
2021/04/27 09:24:50;;;;;;;8.60;7.90;;;29.40;23.90;;;;;;5091442;28;20816;-88
2021/04/27 09:27:35;;;;;;;8.93;8.23;;;29.90;23.40;;;;;;5097311;28;20471;-87
2021/04/27 09:30:11;;;;;;;9.77;7.57;;;30.30;23.40;;;;;;5080687;28;20478;-88
2021/04/27 09:32:45;;;;;;;7.73;7.03;;;30.40;23.20;;;;;;5078421;28;20476;-88
2021/04/27 09:35:35;;;;;;;8.33;7.53;;;29.70;23.30;;;;;;5080228;28;20439;-89
2021/04/27 09:38:16;;;;;;;8.57;7.87;;;30.10;23.60;;;;;;5081583;28;20478;-88
2021/04/27 09:40:52;;;;;;;8.57;7.87;;;30.50;23.60;;;;;;5094314;28;20449;-86
2021/04/27 09:43:21;;;;;;;8.43;6.83;;;31.10;22.60;;;;;;5090872;28;20431;-88
2021/04/27 09:45:52;;;;;;;8.50;7.80;;;31.40;22.60;;;;;;5089700;28;20462;-88
2021/04/27 09:48:35;;;;;;;8.43;7.63;;;29.70;23.00;;;;;;5094509;28;20473;-88
2021/04/27 09:51:21;;;;;;;8.63;7.93;;;29.30;23.90;;;;;;5088324;28;20460;-91
2021/04/27 09:53:51;;;;;;;8.50;7.80;;;29.50;23.90;;;;;;5076094;28;20525;-88
2021/04/27 09:56:39;;;;;;;8.53;7.80;;;29.50;23.90;;;;;;5073600;28;20493;-88
2021/04/27 09:59:09;;;;;;;9.97;9.27;;;29.30;23.50;;;;;;5073516;28;21010;-88
2021/04/27 10:01:36;;;;;;;8.97;7.87;;;29.60;23.80;;;;;;5074055;28;20439;-89
2021/04/27 10:04:04;;;;;;;8.40;7.70;;;30.40;23.40;;;;;;5074922;28;20443;-88
2021/04/27 10:06:30;;;;;;;8.90;8.07;;;31.50;22.80;;;;;;5074191;28;20500;-89
2021/04/27 10:08:58;;;;;;;8.40;7.70;;;31.40;22.40;;;;;;5083943;28;20467;-87
2021/04/27 10:11:26;;;;;;;8.33;7.73;;;31.70;22.20;;;;;;5096991;28;20498;-87
2021/04/27 10:13:53;;;;;;;9.23;8.43;;;32.20;22.30;;;;;;5082588;28;20459;-87
2021/04/27 10:16:20;;;;;;;9.37;8.57;;;32.70;21.70;;;;;;5075113;28;20454;-88
2021/04/27 10:18:47;;;;;;;15.03;9.90;;;32.80;21.70;;;;;;5080573;28;20463;-88
2021/04/27 10:21:14;;;;;;;8.90;8.20;;;33.40;21.40;;;;;;5076403;28;20447;-88
2021/04/27 10:23:42;;;;;;;10.67;9.57;;;33.40;20.60;;;;;;5074627;28;20473;-88
2021/04/27 10:26:09;;;;;;;9.97;9.07;;;32.60;21.10;;;;;;5074070;28;20470;-88
2021/04/27 10:29:00;;;;;;;8.83;7.93;;;30.10;22.80;;;;;;5074086;28;20493;-87
2021/04/27 10:31:28;;;;;;;10.03;9.20;;;31.40;23.00;;;;;;5077902;28;20471;-88
2021/04/27 10:33:59;;;;;;;8.20;7.50;;;31.80;22.00;;;;;;5075013;28;20443;-88
2021/04/27 12:34:12;;;;;;;8.63;7.43;;;33.00;17.90;;;;;;4867635;29;20501;-86
2021/04/27 12:41:31;;;;;;;9.80;8.90;;;30.70;18.30;;;;;;4843904;29;20524;-87
2021/04/27 13:02:40;;;;;;;10.53;9.60;;;34.50;17.90;;;;;;4833849;29;20754;-86
2021/04/27 13:08:25;;;;;;;8.43;7.63;;;32.10;18.80;;;;;;4317897;22;20483;-86
2021/04/27 13:38:44;;;;;;;10.83;9.70;;;31.50;20.90;;;;;;4888171;29;20455;-86
2021/04/27 13:41:12;;;;;;;10.70;9.80;;;32.40;20.30;;;;;;4931251;29;20839;-84
2021/04/27 13:43:40;;;;;;;11.00;10.00;;;31.70;20.40;;;;;;4977460;28;20443;-84
2021/04/27 13:46:09;;;;;;;9.60;8.80;;;31.90;20.20;;;;;;5064152;28;20472;-85
2021/04/27 13:48:35;;;;;;;9.83;8.50;;;31.40;20.60;;;;;;5063996;28;20440;-84
2021/04/27 13:51:04;;;;;;;10.10;9.10;;;29.80;21.10;;;;;;5075090;28;20445;-84
2021/04/27 13:53:31;;;;;;;9.10;8.20;;;28.60;22.10;;;;;;5068351;28;20478;-85
2021/04/27 13:56:00;;;;;;;8.37;7.63;;;27.80;22.80;;;;;;5062242;28;20475;-84
2021/04/27 13:58:27;;;;;;;10.43;8.70;;;28.10;22.80;;;;;;5071634;28;20452;-86
2021/04/27 14:00:54;;;;;;;8.17;7.57;;;28.80;22.60;;;;;;5068224;28;20505;-85
2021/04/27 14:03:21;;;;;;;9.27;8.43;;;29.50;22.10;;;;;;5071521;28;20578;-85
2021/04/27 14:05:49;;;;;;;12.03;8.80;;;30.00;21.70;;;;;;5061405;28;20464;-85
2021/04/27 14:08:15;;;;;;;11.17;8.13;;;30.60;21.80;;;;;;5074914;28;20445;-84
2021/04/27 14:10:43;;;;;;;9.83;9.03;;;31.20;21.30;;;;;;5064772;28;20461;-85
2021/04/27 14:13:12;;;;;;;9.53;8.63;;;31.40;21.10;;;;;;5076661;28;20480;-84
2021/04/27 14:15:42;;;;;;;9.83;8.97;;;31.80;20.80;;;;;;5075836;28;20494;-84
2021/04/27 14:18:09;;;;;;;10.50;9.50;;;31.80;20.40;;;;;;5076606;28;20499;-86
2021/04/27 14:20:36;;;;;;;8.77;7.87;;;29.80;20.40;;;;;;5063943;28;20459;-85
2021/04/27 14:23:04;;;;;;;9.33;8.50;;;28.80;21.80;;;;;;5076523;28;20445;-85
2021/04/27 14:25:31;;;;;;;8.80;8.10;;;28.40;21.90;;;;;;5075287;28;20741;-85
2021/04/27 14:28:07;;;;;;;10.57;8.40;;;28.20;22.00;;;;;;5072989;28;20440;-85
2021/04/27 14:30:35;;;;;;;9.23;8.20;;;28.70;22.00;;;;;;5062456;28;20431;-85
2021/04/27 14:33:01;;;;;;;10.60;9.37;;;29.60;21.60;;;;;;5054877;28;20476;-86
2021/04/27 14:35:30;;;;;;;11.30;10.20;;;29.00;21.50;;;;;;5056099;28;20464;-86
2021/04/27 14:37:57;;;;;;;9.10;8.30;;;27.50;21.50;;;;;;5054742;28;20510;-86
2021/04/27 14:40:25;;;;;;;10.47;9.27;;;26.90;23.40;;;;;;5059102;28;20762;-86
2021/04/27 14:42:51;;;;;;;10.00;9.10;;;28.00;23.00;;;;;;5057499;28;20444;-86
2021/04/27 14:45:20;;;;;;;8.90;8.00;;;28.30;21.90;;;;;;5062575;28;20458;-83
2021/04/27 14:47:49;;;;;;;8.93;8.03;;;28.70;22.10;;;;;;5068091;28;20463;-85
2021/04/27 14:50:18;;;;;;;10.90;9.23;;;28.60;21.80;;;;;;5067568;28;20451;-85
2021/04/27 14:52:45;;;;;;;10.57;9.57;;;28.20;22.00;;;;;;5065740;28;20976;-86
2021/04/27 14:55:13;;;;;;;9.90;9.10;;;28.20;22.00;;;;;;5070167;28;20460;-86
2021/04/27 14:57:41;;;;;;;9.40;8.50;;;28.00;22.10;;;;;;5069237;28;20452;-86
2021/04/27 15:00:11;;;;;;;11.67;10.57;;;27.50;22.50;;;;;;5067647;28;20449;-85
2021/04/27 15:02:38;;;;;;;10.47;8.23;;;27.10;22.70;;;;;;5064001;28;20497;-86
2021/04/27 15:05:09;;;;;;;9.03;8.17;;;26.20;23.20;;;;;;5065028;28;20471;-87
2021/04/27 15:07:35;;;;;;;9.90;9.10;;;25.00;24.20;;;;;;5055111;28;20489;-85
2021/04/27 15:10:03;;;;;;;9.00;8.20;;;24.30;24.70;;;;;;5071893;28;20445;-87
2021/04/27 15:12:29;;;;;;;9.13;8.27;;;23.60;25.10;;;;;;5057038;28;20480;-87
2021/04/27 15:14:55;;;;;;;8.57;7.60;;;22.60;25.40;;;;;;5059124;28;20524;-87
2021/04/27 15:17:22;;;;;;;9.93;8.70;;;21.70;26.30;;;;;;5060221;28;20451;-85
2021/04/27 15:19:50;;;;;;;9.50;8.50;;;21.50;26.40;;;;;;5056555;28;20460;-86
2021/04/27 15:22:18;;;;;;;9.37;8.57;;;21.40;26.60;;;;;;5064805;28;20438;-85
2021/04/27 15:24:47;;;;;;;10.30;8.67;;;21.20;26.70;;;;;;5063785;28;20495;-87
2021/04/27 15:27:14;;;;;;;10.13;9.23;;;20.90;27.30;;;;;;5056573;28;20450;-86
2021/04/27 16:13:25;;;;;;;9.37;8.47;;;20.00;28.40;;;;;;4964470;29;20524;-87
2021/04/27 16:40:00;;;;;;;9.27;8.10;;;19.80;28.50;;;;;;5035301;28;20452;-87
2021/04/27 16:46:32;;;;;;;10.93;8.60;;;19.70;28.40;;;;;;5009635;28;20450;-87
2021/04/27 16:49:17;;;;;;;7.97;7.20;;;19.80;28.50;;;;;;5075314;28;20449;-86
2021/04/27 16:52:07;;;;;;;8.43;7.37;;;20.00;28.30;;;;;;5075047;28;20451;-86
2021/04/27 16:55:23;;;;;;;8.50;7.70;;;20.00;28.30;;;;;;5066156;22;20447;-86
2021/04/27 16:58:26;;;;;;;12.50;9.67;;;19.80;28.50;;;;;;5056621;28;20490;-87
2021/04/27 17:08:25;;;;;;;8.70;7.90;;;19.40;29.20;;;;;;4964331;28;20979;-86
2021/04/27 17:11:19;;;;;;;7.80;7.10;;;19.40;29.20;;;;;;5047996;28;20446;-86
2021/04/27 17:13:51;;;;;;;8.57;7.80;;;19.30;29.20;;;;;;5042055;28;20500;-86
2021/04/27 17:20:00;;;;;;;8.70;7.17;;;19.30;29.20;;;;;;5040401;28;20452;-87
2021/04/27 17:22:47;;;;;;;7.93;7.23;;;19.20;29.20;;;;;;4976573;28;20446;-88
2021/04/27 17:29:13;;;;;;;8.20;7.40;;;19.10;29.10;;;;;;5033130;28;20430;-85
2021/04/27 17:32:20;;;;;;;6.93;6.33;;;18.90;29.20;;;;;;5049611;28;20442;-86
2021/04/27 17:38:50;;;;;;;8.13;6.90;;;18.60;29.90;;;;;;4984319;28;20550;-87
2021/04/27 17:47:47;;;;;;;9.20;7.80;;;18.60;29.70;;;;;;5136130;22;20545;-87
2021/04/27 18:07:38;;;;;;;10.63;8.10;;;17.70;31.50;;;;;;5070729;28;20475;-86
2021/04/27 18:23:26;;;;;;;8.17;7.37;;;17.40;31.70;;;;;;4898485;29;20453;-87
2021/04/27 18:26:00;;;;;;;6.57;5.97;;;17.40;31.60;;;;;;4980534;28;20474;-86
2021/04/27 18:28:30;;;;;;;8.00;6.60;;;17.20;32.70;;;;;;5047649;28;20496;-85
2021/04/27 18:30:57;;;;;;;9.13;7.87;;;17.20;33.10;;;;;;5046120;28;20441;-86
2021/04/27 18:33:23;;;;;;;7.73;6.13;;;17.10;33.10;;;;;;5065017;28;20527;-86
2021/04/27 18:35:49;;;;;;;8.00;6.17;;;17.00;33.10;;;;;;5069982;28;20447;-85
2021/04/27 18:38:16;;;;;;;6.50;6.00;;;16.90;33.20;;;;;;5070883;28;20444;-86
2021/04/27 18:40:42;;;;;;;7.70;6.90;;;16.80;33.40;;;;;;5065183;28;20467;-86
2021/04/27 18:43:13;;;;;;;7.50;6.70;;;16.70;33.70;;;;;;5066039;28;20452;-88
2021/04/27 18:45:43;;;;;;;8.57;7.30;;;16.60;33.80;;;;;;5064750;28;20463;-86
2021/04/27 18:48:15;;;;;;;9.73;6.60;;;16.50;34.20;;;;;;5075315;28;20446;-87
2021/04/27 18:50:48;;;;;;;7.70;6.90;;;16.50;34.60;;;;;;5064583;28;20436;-85
2021/04/27 18:53:17;;;;;;;6.93;5.80;;;16.40;34.70;;;;;;5061121;28;20941;-86
2021/04/27 18:55:44;;;;;;;6.80;6.20;;;16.40;34.70;;;;;;5066942;28;20545;-86
2021/04/27 18:58:15;;;;;;;8.00;6.90;;;16.30;35.40;;;;;;5068958;28;20524;-85
2021/04/27 19:00:45;;;;;;;10.53;6.50;;;16.30;35.80;;;;;;5063920;28;20524;-87
2021/04/27 19:03:13;;;;;;;8.17;6.40;;;16.20;35.90;;;;;;5064217;28;20478;-87
2021/04/27 19:05:46;;;;;;;7.00;6.33;;;16.10;35.70;;;;;;5064369;28;20912;-91
2021/04/27 19:08:12;;;;;;;8.57;6.70;;;16.10;35.80;;;;;;5080174;28;20456;-87